sensor_id;sensor_type;location;lat;lon;timestamp;temperature;humidity
67572;SHT31;54397;47.506;19.158;2023-02-24T00:02:33;9.75;65.82
67572;SHT31;54397;47.506;19.158;2023-02-24T00:05:59;9.87;66.49
67572;SHT31;54397;47.506;19.158;2023-02-24T00:09:28;10.02;66.69
67572;SHT31;54397;47.506;19.158;2023-02-24T00:12:52;9.93;65.57
67572;SHT31;54397;47.506;19.158;2023-02-24T00:16:16;9.90;65.20
67572;SHT31;54397;47.506;19.158;2023-02-24T00:19:38;9.91;64.34
67572;SHT31;54397;47.506;19.158;2023-02-24T00:23:00;9.84;64.25
67572;SHT31;54397;47.506;19.158;2023-02-24T00:26:24;9.75;65.55
67572;SHT31;54397;47.506;19.158;2023-02-24T00:29:47;9.69;66.12
67572;SHT31;54397;47.506;19.158;2023-02-24T00:33:11;9.71;65.76
67572;SHT31;54397;47.506;19.158;2023-02-24T00:36:35;9.74;65.04
67572;SHT31;54397;47.506;19.158;2023-02-24T00:39:59;9.81;64.50
67572;SHT31;54397;47.506;19.158;2023-02-24T00:43:33;9.80;64.57
67572;SHT31;54397;47.506;19.158;2023-02-24T00:47:00;9.74;65.51
67572;SHT31;54397;47.506;19.158;2023-02-24T00:50:22;9.77;65.20
67572;SHT31;54397;47.506;19.158;2023-02-24T00:53:45;9.70;65.30
67572;SHT31;54397;47.506;19.158;2023-02-24T00:57:07;9.74;66.12
67572;SHT31;54397;47.506;19.158;2023-02-24T01:00:33;9.70;66.75
67572;SHT31;54397;47.506;19.158;2023-02-24T01:03:58;9.60;65.92
67572;SHT31;54397;47.506;19.158;2023-02-24T01:07:20;9.61;65.72
67572;SHT31;54397;47.506;19.158;2023-02-24T01:10:45;9.66;65.69
67572;SHT31;54397;47.506;19.158;2023-02-24T01:14:31;9.60;65.72
67572;SHT31;54397;47.506;19.158;2023-02-24T01:17:52;9.64;65.95
67572;SHT31;54397;47.506;19.158;2023-02-24T01:21:20;9.60;65.87
67572;SHT31;54397;47.506;19.158;2023-02-24T01:24:43;9.51;66.23
67572;SHT31;54397;47.506;19.158;2023-02-24T01:28:05;9.48;66.36
67572;SHT31;54397;47.506;19.158;2023-02-24T01:31:31;9.33;67.22
67572;SHT31;54397;47.506;19.158;2023-02-24T01:34:53;9.26;67.75
67572;SHT31;54397;47.506;19.158;2023-02-24T01:38:15;9.18;67.32
67572;SHT31;54397;47.506;19.158;2023-02-24T01:41:47;9.15;68.46
67572;SHT31;54397;47.506;19.158;2023-02-24T01:45:19;9.15;68.72
67572;SHT31;54397;47.506;19.158;2023-02-24T01:48:45;9.14;69.03
67572;SHT31;54397;47.506;19.158;2023-02-24T01:55:41;9.06;70.31
67572;SHT31;54397;47.506;19.158;2023-02-24T01:59:04;9.14;70.36
67572;SHT31;54397;47.506;19.158;2023-02-24T02:02:25;9.12;70.30
67572;SHT31;54397;47.506;19.158;2023-02-24T02:05:48;9.22;70.23
67572;SHT31;54397;47.506;19.158;2023-02-24T02:09:14;9.22;70.50
67572;SHT31;54397;47.506;19.158;2023-02-24T02:12:38;9.30;70.09
67572;SHT31;54397;47.506;19.158;2023-02-24T02:19:56;9.23;71.89
67572;SHT31;54397;47.506;19.158;2023-02-24T02:23:57;9.09;72.26
67572;SHT31;54397;47.506;19.158;2023-02-24T02:35:27;9.11;71.39
67572;SHT31;54397;47.506;19.158;2023-02-24T02:40:04;9.08;70.22
67572;SHT31;54397;47.506;19.158;2023-02-24T02:43:21;9.25;69.74
67572;SHT31;54397;47.506;19.158;2023-02-24T02:50:53;9.16;69.63
67572;SHT31;54397;47.506;19.158;2023-02-24T02:54:20;9.01;69.99
67572;SHT31;54397;47.506;19.158;2023-02-24T02:57:45;8.98;70.03
67572;SHT31;54397;47.506;19.158;2023-02-24T03:01:09;9.09;71.02
67572;SHT31;54397;47.506;19.158;2023-02-24T03:04:31;9.25;70.99
67572;SHT31;54397;47.506;19.158;2023-02-24T03:07:54;9.19;70.94
67572;SHT31;54397;47.506;19.158;2023-02-24T03:11:19;9.05;72.46
67572;SHT31;54397;47.506;19.158;2023-02-24T03:14:45;9.11;69.19
67572;SHT31;54397;47.506;19.158;2023-02-24T03:18:18;9.15;69.70
67572;SHT31;54397;47.506;19.158;2023-02-24T03:21:43;9.14;69.18
67572;SHT31;54397;47.506;19.158;2023-02-24T03:25:06;9.18;68.77
67572;SHT31;54397;47.506;19.158;2023-02-24T03:28:39;9.23;68.35
67572;SHT31;54397;47.506;19.158;2023-02-24T03:32:05;9.20;66.94
67572;SHT31;54397;47.506;19.158;2023-02-24T03:35:31;9.18;67.07
67572;SHT31;54397;47.506;19.158;2023-02-24T03:38:56;9.19;67.03
67572;SHT31;54397;47.506;19.158;2023-02-24T03:42:22;9.12;67.34
67572;SHT31;54397;47.506;19.158;2023-02-24T03:45:47;9.08;67.87
67572;SHT31;54397;47.506;19.158;2023-02-24T03:49:11;9.16;67.68
67572;SHT31;54397;47.506;19.158;2023-02-24T03:56:27;9.14;67.03
67572;SHT31;54397;47.506;19.158;2023-02-24T04:03:48;9.08;68.24
67572;SHT31;54397;47.506;19.158;2023-02-24T04:07:37;9.05;68.84
67572;SHT31;54397;47.506;19.158;2023-02-24T04:11:07;9.05;68.68
67572;SHT31;54397;47.506;19.158;2023-02-24T04:14:36;9.06;67.90
67572;SHT31;54397;47.506;19.158;2023-02-24T04:18:00;9.06;68.79
67572;SHT31;54397;47.506;19.158;2023-02-24T04:21:28;9.19;68.11
67572;SHT31;54397;47.506;19.158;2023-02-24T04:24:55;9.16;68.08
67572;SHT31;54397;47.506;19.158;2023-02-24T04:28:20;9.14;68.20
67572;SHT31;54397;47.506;19.158;2023-02-24T04:31:48;9.14;68.74
67572;SHT31;54397;47.506;19.158;2023-02-24T04:35:14;9.05;68.19
67572;SHT31;54397;47.506;19.158;2023-02-24T04:38:40;8.99;68.02
67572;SHT31;54397;47.506;19.158;2023-02-24T04:42:07;8.95;67.83
67572;SHT31;54397;47.506;19.158;2023-02-24T04:45:32;8.87;67.91
67572;SHT31;54397;47.506;19.158;2023-02-24T04:48:54;8.91;68.07
67572;SHT31;54397;47.506;19.158;2023-02-24T04:52:17;8.97;69.47
67572;SHT31;54397;47.506;19.158;2023-02-24T04:55:45;8.92;68.54
67572;SHT31;54397;47.506;19.158;2023-02-24T04:59:10;8.79;68.78
67572;SHT31;54397;47.506;19.158;2023-02-24T05:02:32;8.81;69.39
67572;SHT31;54397;47.506;19.158;2023-02-24T05:05:57;8.72;70.48
67572;SHT31;54397;47.506;19.158;2023-02-24T05:09:23;8.79;69.61
67572;SHT31;54397;47.506;19.158;2023-02-24T05:12:44;8.82;69.38
67572;SHT31;54397;47.506;19.158;2023-02-24T05:16:07;8.81;69.70
67572;SHT31;54397;47.506;19.158;2023-02-24T05:19:31;8.85;69.24
67572;SHT31;54397;47.506;19.158;2023-02-24T05:23:12;8.88;69.57
67572;SHT31;54397;47.506;19.158;2023-02-24T05:26:34;8.82;68.46
67572;SHT31;54397;47.506;19.158;2023-02-24T05:29:57;8.87;69.19
67572;SHT31;54397;47.506;19.158;2023-02-24T05:33:19;8.87;68.99
67572;SHT31;54397;47.506;19.158;2023-02-24T05:36:43;8.89;68.42
67572;SHT31;54397;47.506;19.158;2023-02-24T05:40:07;8.91;69.12
67572;SHT31;54397;47.506;19.158;2023-02-24T05:43:33;8.93;68.63
67572;SHT31;54397;47.506;19.158;2023-02-24T05:46:56;8.89;68.69
67572;SHT31;54397;47.506;19.158;2023-02-24T05:50:23;8.99;68.43
67572;SHT31;54397;47.506;19.158;2023-02-24T05:53:46;8.98;68.59
67572;SHT31;54397;47.506;19.158;2023-02-24T05:57:11;8.93;68.72
67572;SHT31;54397;47.506;19.158;2023-02-24T06:00:37;8.91;69.12
67572;SHT31;54397;47.506;19.158;2023-02-24T06:04:08;8.87;69.17
67572;SHT31;54397;47.506;19.158;2023-02-24T06:07:30;8.88;68.85
67572;SHT31;54397;47.506;19.158;2023-02-24T06:10:55;8.98;68.49
67572;SHT31;54397;47.506;19.158;2023-02-24T06:14:17;8.99;68.68
67572;SHT31;54397;47.506;19.158;2023-02-24T06:17:45;8.95;68.94
67572;SHT31;54397;47.506;19.158;2023-02-24T06:21:09;8.93;69.27
67572;SHT31;54397;47.506;19.158;2023-02-24T06:24:33;8.84;69.77
67572;SHT31;54397;47.506;19.158;2023-02-24T06:27:55;8.67;70.33
67572;SHT31;54397;47.506;19.158;2023-02-24T06:31:17;8.67;71.18
67572;SHT31;54397;47.506;19.158;2023-02-24T06:34:39;8.70;70.89
67572;SHT31;54397;47.506;19.158;2023-02-24T06:38:01;8.71;70.95
67572;SHT31;54397;47.506;19.158;2023-02-24T06:41:23;8.74;71.59
67572;SHT31;54397;47.506;19.158;2023-02-24T06:44:45;8.93;71.24
67572;SHT31;54397;47.506;19.158;2023-02-24T06:48:07;8.88;71.50
67572;SHT31;54397;47.506;19.158;2023-02-24T06:51:29;8.99;71.72
67572;SHT31;54397;47.506;19.158;2023-02-24T06:54:51;9.11;71.02
67572;SHT31;54397;47.506;19.158;2023-02-24T06:58:15;9.16;71.33
67572;SHT31;54397;47.506;19.158;2023-02-24T07:01:39;9.23;70.81
67572;SHT31;54397;47.506;19.158;2023-02-24T07:05:06;9.37;70.70
67572;SHT31;54397;47.506;19.158;2023-02-24T07:08:27;9.26;71.09
67572;SHT31;54397;47.506;19.158;2023-02-24T07:11:50;9.23;72.04
67572;SHT31;54397;47.506;19.158;2023-02-24T07:15:12;9.18;71.98
67572;SHT31;54397;47.506;19.158;2023-02-24T07:18:36;9.35;71.88
67572;SHT31;54397;47.506;19.158;2023-02-24T07:22:01;9.33;72.38
67572;SHT31;54397;47.506;19.158;2023-02-24T07:25:24;9.42;71.90
67572;SHT31;54397;47.506;19.158;2023-02-24T07:28:54;9.50;72.38
67572;SHT31;54397;47.506;19.158;2023-02-24T07:32:17;9.58;71.69
67572;SHT31;54397;47.506;19.158;2023-02-24T07:35:39;9.44;71.83
67572;SHT31;54397;47.506;19.158;2023-02-24T07:39:02;9.60;72.09
67572;SHT31;54397;47.506;19.158;2023-02-24T07:42:24;10.08;70.86
67572;SHT31;54397;47.506;19.158;2023-02-24T07:45:46;10.28;70.72
67572;SHT31;54397;47.506;19.158;2023-02-24T07:49:13;10.76;68.07
67572;SHT31;54397;47.506;19.158;2023-02-24T07:52:35;11.18;67.71
67572;SHT31;54397;47.506;19.158;2023-02-24T07:55:56;11.51;67.29
67572;SHT31;54397;47.506;19.158;2023-02-24T07:59:25;11.90;65.51
67572;SHT31;54397;47.506;19.158;2023-02-24T08:02:54;11.59;65.88
67572;SHT31;54397;47.506;19.158;2023-02-24T08:06:18;11.14;66.72
67572;SHT31;54397;47.506;19.158;2023-02-24T08:09:58;10.84;67.79
67572;SHT31;54397;47.506;19.158;2023-02-24T08:13:39;10.77;68.98
67572;SHT31;54397;47.506;19.158;2023-02-24T08:17:02;10.66;69.54
67572;SHT31;54397;47.506;19.158;2023-02-24T08:20:27;10.61;69.41
67572;SHT31;54397;47.506;19.158;2023-02-24T08:24:13;10.60;69.67
67572;SHT31;54397;47.506;19.158;2023-02-24T08:27:40;10.70;69.27
67572;SHT31;54397;47.506;19.158;2023-02-24T08:31:04;10.85;69.76
67572;SHT31;54397;47.506;19.158;2023-02-24T08:34:29;10.93;69.75
67572;SHT31;54397;47.506;19.158;2023-02-24T08:37:53;11.27;68.61
67572;SHT31;54397;47.506;19.158;2023-02-24T08:41:17;11.40;67.95
67572;SHT31;54397;47.506;19.158;2023-02-24T08:44:41;11.54;74.03
67572;SHT31;54397;47.506;19.158;2023-02-24T08:48:06;12.11;76.80
67572;SHT31;54397;47.506;19.158;2023-02-24T08:51:39;12.55;75.15
67572;SHT31;54397;47.506;19.158;2023-02-24T08:55:04;13.23;68.39
67572;SHT31;54397;47.506;19.158;2023-02-24T08:58:31;13.82;65.61
67572;SHT31;54397;47.506;19.158;2023-02-24T09:01:52;14.02;64.32
67572;SHT31;54397;47.506;19.158;2023-02-24T09:05:34;13.78;60.05
67572;SHT31;54397;47.506;19.158;2023-02-24T09:08:59;13.72;63.09
67572;SHT31;54397;47.506;19.158;2023-02-24T09:12:44;14.02;59.90
67572;SHT31;54397;47.506;19.158;2023-02-24T09:16:06;13.61;59.88
67572;SHT31;54397;47.506;19.158;2023-02-24T09:19:42;14.20;58.56
67572;SHT31;54397;47.506;19.158;2023-02-24T09:23:13;14.34;58.24
67572;SHT31;54397;47.506;19.158;2023-02-24T09:26:42;14.13;59.13
67572;SHT31;54397;47.506;19.158;2023-02-24T09:30:04;14.74;57.80
67572;SHT31;54397;47.506;19.158;2023-02-24T09:33:36;14.60;57.68
67572;SHT31;54397;47.506;19.158;2023-02-24T09:37:03;14.96;57.63
67572;SHT31;54397;47.506;19.158;2023-02-24T09:40:28;15.10;59.03
67572;SHT31;54397;47.506;19.158;2023-02-24T09:44:14;15.83;60.36
67572;SHT31;54397;47.506;19.158;2023-02-24T09:47:42;16.23;57.74
67572;SHT31;54397;47.506;19.158;2023-02-24T09:51:17;16.39;59.65
67572;SHT31;54397;47.506;19.158;2023-02-24T09:54:47;16.60;57.64
67572;SHT31;54397;47.506;19.158;2023-02-24T10:02:39;16.79;55.41
67572;SHT31;54397;47.506;19.158;2023-02-24T10:06:12;17.15;53.94
67572;SHT31;54397;47.506;19.158;2023-02-24T10:09:40;17.14;54.62
67572;SHT31;54397;47.506;19.158;2023-02-24T10:13:07;17.25;55.03
67572;SHT31;54397;47.506;19.158;2023-02-24T10:16:43;17.19;51.64
67572;SHT31;54397;47.506;19.158;2023-02-24T10:23:59;16.95;52.81
67572;SHT31;54397;47.506;19.158;2023-02-24T10:27:49;16.71;52.65
67572;SHT31;54397;47.506;19.158;2023-02-24T10:31:18;17.28;52.42
67572;SHT31;54397;47.506;19.158;2023-02-24T10:34:51;17.08;51.83
67572;SHT31;54397;47.506;19.158;2023-02-24T10:38:13;16.45;54.01
67572;SHT31;54397;47.506;19.158;2023-02-24T10:41:48;16.28;54.53
67572;SHT31;54397;47.506;19.158;2023-02-24T10:45:24;16.05;54.91
67572;SHT31;54397;47.506;19.158;2023-02-24T10:48:55;16.02;55.19
67572;SHT31;54397;47.506;19.158;2023-02-24T10:52:35;16.21;54.82
67572;SHT31;54397;47.506;19.158;2023-02-24T10:56:01;16.30;53.89
67572;SHT31;54397;47.506;19.158;2023-02-24T10:59:58;16.22;53.63
67572;SHT31;54397;47.506;19.158;2023-02-24T11:03:28;16.22;54.53
67572;SHT31;54397;47.506;19.158;2023-02-24T11:07:11;16.81;53.57
67572;SHT31;54397;47.506;19.158;2023-02-24T11:10:38;17.50;52.20
67572;SHT31;54397;47.506;19.158;2023-02-24T11:14:14;17.86;51.14
67572;SHT31;54397;47.506;19.158;2023-02-24T11:17:57;18.21;50.65
67572;SHT31;54397;47.506;19.158;2023-02-24T11:21:23;18.41;49.41
67572;SHT31;54397;47.506;19.158;2023-02-24T11:24:51;18.35;49.18
67572;SHT31;54397;47.506;19.158;2023-02-24T11:35:52;18.30;49.40
67572;SHT31;54397;47.506;19.158;2023-02-24T11:43:15;19.03;49.05
67572;SHT31;54397;47.506;19.158;2023-02-24T11:46:50;19.47;46.94
67572;SHT31;54397;47.506;19.158;2023-02-24T11:54:02;19.86;46.71
67572;SHT31;54397;47.506;19.158;2023-02-24T11:57:42;19.99;45.38
67572;SHT31;54397;47.506;19.158;2023-02-24T12:01:15;20.09;45.21
67572;SHT31;54397;47.506;19.158;2023-02-24T12:04:49;19.72;45.72
67572;SHT31;54397;47.506;19.158;2023-02-24T12:08:31;19.28;46.28
67572;SHT31;54397;47.506;19.158;2023-02-24T12:12:03;19.41;46.48
67572;SHT31;54397;47.506;19.158;2023-02-24T12:22:36;19.39;47.06
67572;SHT31;54397;47.506;19.158;2023-02-24T12:33:45;19.32;46.55
67572;SHT31;54397;47.506;19.158;2023-02-24T12:37:31;18.40;48.26
67572;SHT31;54397;47.506;19.158;2023-02-24T12:45:16;17.39;51.99
67572;SHT31;54397;47.506;19.158;2023-02-24T12:56:00;17.53;52.28
67572;SHT31;54397;47.506;19.158;2023-02-24T12:59:28;17.43;51.78
67572;SHT31;54397;47.506;19.158;2023-02-24T13:06:56;16.81;52.82
67572;SHT31;54397;47.506;19.158;2023-02-24T13:14:44;16.33;54.05
67572;SHT31;54397;47.506;19.158;2023-02-24T13:18:09;16.22;54.24
67572;SHT31;54397;47.506;19.158;2023-02-24T13:21:31;15.95;55.31
67572;SHT31;54397;47.506;19.158;2023-02-24T13:28:29;16.05;55.28
67572;SHT31;54397;47.506;19.158;2023-02-24T13:31:56;15.91;55.18
67572;SHT31;54397;47.506;19.158;2023-02-24T13:38:45;15.51;56.03
67572;SHT31;54397;47.506;19.158;2023-02-24T13:45:40;15.20;57.18
67572;SHT31;54397;47.506;19.158;2023-02-24T13:49:23;15.08;57.92
67572;SHT31;54397;47.506;19.158;2023-02-24T14:00:22;14.95;58.73
67572;SHT31;54397;47.506;19.158;2023-02-24T14:04:16;15.00;58.05
67572;SHT31;54397;47.506;19.158;2023-02-24T14:07:41;15.16;59.50
67572;SHT31;54397;47.506;19.158;2023-02-24T14:11:06;15.39;58.00
67572;SHT31;54397;47.506;19.158;2023-02-24T14:14:30;15.66;56.06
67572;SHT31;54397;47.506;19.158;2023-02-24T14:17:58;15.95;56.79
67572;SHT31;54397;47.506;19.158;2023-02-24T14:21:25;15.88;56.29
67572;SHT31;54397;47.506;19.158;2023-02-24T14:25:00;15.91;55.61
67572;SHT31;54397;47.506;19.158;2023-02-24T14:28:29;15.90;54.53
67572;SHT31;54397;47.506;19.158;2023-02-24T14:31:53;15.84;54.86
67572;SHT31;54397;47.506;19.158;2023-02-24T14:35:32;15.77;55.42
67572;SHT31;54397;47.506;19.158;2023-02-24T14:42:32;15.63;54.78
67572;SHT31;54397;47.506;19.158;2023-02-24T14:45:54;15.56;52.88
67572;SHT31;54397;47.506;19.158;2023-02-24T14:49:26;15.56;52.90
67572;SHT31;54397;47.506;19.158;2023-02-24T14:56:22;15.51;53.67
67572;SHT31;54397;47.506;19.158;2023-02-24T14:59:53;15.73;58.90
67572;SHT31;54397;47.506;19.158;2023-02-24T15:03:22;15.91;57.74
67572;SHT31;54397;47.506;19.158;2023-02-24T15:06:45;16.22;56.28
67572;SHT31;54397;47.506;19.158;2023-02-24T15:10:20;16.36;54.85
67572;SHT31;54397;47.506;19.158;2023-02-24T15:13:55;16.69;56.05
67572;SHT31;54397;47.506;19.158;2023-02-24T15:17:21;16.71;54.87
67572;SHT31;54397;47.506;19.158;2023-02-24T15:20:43;16.74;55.65
67572;SHT31;54397;47.506;19.158;2023-02-24T15:24:18;16.50;51.02
67572;SHT31;54397;47.506;19.158;2023-02-24T15:27:57;16.21;51.57
67572;SHT31;54397;47.506;19.158;2023-02-24T15:31:19;15.95;52.17
67572;SHT31;54397;47.506;19.158;2023-02-24T15:34:44;15.74;52.96
67572;SHT31;54397;47.506;19.158;2023-02-24T15:38:20;15.56;53.61
67572;SHT31;54397;47.506;19.158;2023-02-24T15:41:44;15.44;54.06
67572;SHT31;54397;47.506;19.158;2023-02-24T15:48:50;15.13;53.32
67572;SHT31;54397;47.506;19.158;2023-02-24T15:52:16;15.02;53.94
67572;SHT31;54397;47.506;19.158;2023-02-24T15:55:41;15.00;54.50
67572;SHT31;54397;47.506;19.158;2023-02-24T15:59:03;14.85;55.47
67572;SHT31;54397;47.506;19.158;2023-02-24T16:02:30;14.81;55.98
67572;SHT31;54397;47.506;19.158;2023-02-24T16:05:51;14.74;56.25
67572;SHT31;54397;47.506;19.158;2023-02-24T16:09:16;14.70;60.03
67572;SHT31;54397;47.506;19.158;2023-02-24T16:12:46;14.98;57.08
67572;SHT31;54397;47.506;19.158;2023-02-24T16:16:11;14.88;56.45
67572;SHT31;54397;47.506;19.158;2023-02-24T16:19:35;14.74;56.79
67572;SHT31;54397;47.506;19.158;2023-02-24T16:23:00;14.65;56.63
67572;SHT31;54397;47.506;19.158;2023-02-24T16:26:22;14.54;57.42
67572;SHT31;54397;47.506;19.158;2023-02-24T16:29:44;14.43;57.80
67572;SHT31;54397;47.506;19.158;2023-02-24T16:33:10;14.30;57.87
67572;SHT31;54397;47.506;19.158;2023-02-24T16:36:32;14.20;58.61
67572;SHT31;54397;47.506;19.158;2023-02-24T16:39:54;14.22;58.40
67572;SHT31;54397;47.506;19.158;2023-02-24T16:43:16;14.12;59.02
67572;SHT31;54397;47.506;19.158;2023-02-24T16:46:39;14.12;58.79
67572;SHT31;54397;47.506;19.158;2023-02-24T16:50:08;14.06;59.16
67572;SHT31;54397;47.506;19.158;2023-02-24T16:53:35;14.01;58.97
67572;SHT31;54397;47.506;19.158;2023-02-24T16:56:57;13.98;59.13
67572;SHT31;54397;47.506;19.158;2023-02-24T17:00:23;14.03;58.96
67572;SHT31;54397;47.506;19.158;2023-02-24T17:03:48;14.02;58.40
67572;SHT31;54397;47.506;19.158;2023-02-24T17:07:11;13.99;58.47
67572;SHT31;54397;47.506;19.158;2023-02-24T17:10:35;13.82;59.04
67572;SHT31;54397;47.506;19.158;2023-02-24T17:14:02;13.76;58.81
67572;SHT31;54397;47.506;19.158;2023-02-24T17:17:28;13.83;58.73
67572;SHT31;54397;47.506;19.158;2023-02-24T17:20:51;13.78;58.96
67572;SHT31;54397;47.506;19.158;2023-02-24T17:24:18;13.76;58.51
67572;SHT31;54397;47.506;19.158;2023-02-24T17:27:40;13.87;58.36
67572;SHT31;54397;47.506;19.158;2023-02-24T17:31:02;13.81;58.16
67572;SHT31;54397;47.506;19.158;2023-02-24T17:34:27;13.81;58.27
67572;SHT31;54397;47.506;19.158;2023-02-24T17:37:49;13.85;57.96
67572;SHT31;54397;47.506;19.158;2023-02-24T17:41:11;13.81;58.00
67572;SHT31;54397;47.506;19.158;2023-02-24T17:44:32;13.79;57.70
67572;SHT31;54397;47.506;19.158;2023-02-24T17:47:56;13.72;58.30
67572;SHT31;54397;47.506;19.158;2023-02-24T17:51:18;13.72;58.72
67572;SHT31;54397;47.506;19.158;2023-02-24T17:54:43;13.65;59.07
67572;SHT31;54397;47.506;19.158;2023-02-24T17:58:05;13.59;59.81
67572;SHT31;54397;47.506;19.158;2023-02-24T18:01:27;13.48;60.49
67572;SHT31;54397;47.506;19.158;2023-02-24T18:04:53;13.34;60.86
67572;SHT31;54397;47.506;19.158;2023-02-24T18:08:15;13.17;61.04
67572;SHT31;54397;47.506;19.158;2023-02-24T18:11:39;13.16;61.89
67572;SHT31;54397;47.506;19.158;2023-02-24T18:15:01;13.03;61.34
67572;SHT31;54397;47.506;19.158;2023-02-24T18:21:55;12.85;62.40
67572;SHT31;54397;47.506;19.158;2023-02-24T18:25:22;12.80;62.59
67572;SHT31;54397;47.506;19.158;2023-02-24T18:28:44;12.79;62.48
67572;SHT31;54397;47.506;19.158;2023-02-24T18:32:08;12.75;62.68
67572;SHT31;54397;47.506;19.158;2023-02-24T18:35:32;12.82;61.83
67572;SHT31;54397;47.506;19.158;2023-02-24T18:38:59;12.88;60.93
67572;SHT31;54397;47.506;19.158;2023-02-24T18:42:20;13.03;60.36
67572;SHT31;54397;47.506;19.158;2023-02-24T18:45:42;12.93;60.04
67572;SHT31;54397;47.506;19.158;2023-02-24T18:49:04;12.99;59.85
67572;SHT31;54397;47.506;19.158;2023-02-24T18:52:27;13.02;59.91
67572;SHT31;54397;47.506;19.158;2023-02-24T18:55:49;13.04;59.93
67572;SHT31;54397;47.506;19.158;2023-02-24T18:59:11;13.04;59.92
67572;SHT31;54397;47.506;19.158;2023-02-24T19:02:33;12.93;59.95
67572;SHT31;54397;47.506;19.158;2023-02-24T19:05:57;12.89;60.24
67572;SHT31;54397;47.506;19.158;2023-02-24T19:09:21;12.97;60.32
67572;SHT31;54397;47.506;19.158;2023-02-24T19:12:45;12.83;60.30
67572;SHT31;54397;47.506;19.158;2023-02-24T19:16:08;12.80;60.54
67572;SHT31;54397;47.506;19.158;2023-02-24T19:19:31;12.80;60.65
67572;SHT31;54397;47.506;19.158;2023-02-24T19:22:52;12.80;60.65
67572;SHT31;54397;47.506;19.158;2023-02-24T19:26:23;12.72;60.74
67572;SHT31;54397;47.506;19.158;2023-02-24T19:29:47;12.72;60.70
67572;SHT31;54397;47.506;19.158;2023-02-24T19:33:09;12.69;60.92
67572;SHT31;54397;47.506;19.158;2023-02-24T19:36:32;12.56;61.91
67572;SHT31;54397;47.506;19.158;2023-02-24T19:39:54;12.59;62.08
67572;SHT31;54397;47.506;19.158;2023-02-24T19:43:21;12.53;62.45
67572;SHT31;54397;47.506;19.158;2023-02-24T19:46:43;12.49;62.07
67572;SHT31;54397;47.506;19.158;2023-02-24T19:50:05;12.46;62.49
67572;SHT31;54397;47.506;19.158;2023-02-24T19:53:26;12.41;62.40
67572;SHT31;54397;47.506;19.158;2023-02-24T19:56:49;12.37;62.58
67572;SHT31;54397;47.506;19.158;2023-02-24T20:00:11;12.28;62.77
67572;SHT31;54397;47.506;19.158;2023-02-24T20:03:38;12.27;63.11
67572;SHT31;54397;47.506;19.158;2023-02-24T20:07:04;12.20;63.24
67572;SHT31;54397;47.506;19.158;2023-02-24T20:10:25;12.17;63.46
67572;SHT31;54397;47.506;19.158;2023-02-24T20:13:52;12.07;64.07
67572;SHT31;54397;47.506;19.158;2023-02-24T20:17:14;12.17;64.16
67572;SHT31;54397;47.506;19.158;2023-02-24T20:20:40;12.14;64.53
67572;SHT31;54397;47.506;19.158;2023-02-24T20:24:04;12.31;64.26
67572;SHT31;54397;47.506;19.158;2023-02-24T20:27:31;12.25;64.62
67572;SHT31;54397;47.506;19.158;2023-02-24T20:30:59;12.20;64.55
67572;SHT31;54397;47.506;19.158;2023-02-24T20:34:25;12.11;65.48
67572;SHT31;54397;47.506;19.158;2023-02-24T20:37:47;12.01;65.29
67572;SHT31;54397;47.506;19.158;2023-02-24T20:41:09;12.28;72.65
67572;SHT31;54397;47.506;19.158;2023-02-24T20:44:31;12.70;70.20
67572;SHT31;54397;47.506;19.158;2023-02-24T20:47:57;13.14;69.62
67572;SHT31;54397;47.506;19.158;2023-02-24T20:51:21;13.30;67.95
67572;SHT31;54397;47.506;19.158;2023-02-24T20:54:43;13.47;67.45
67572;SHT31;54397;47.506;19.158;2023-02-24T20:58:07;13.23;61.18
67572;SHT31;54397;47.506;19.158;2023-02-24T21:01:29;12.82;62.15
67572;SHT31;54397;47.506;19.158;2023-02-24T21:04:53;12.55;62.87
67572;SHT31;54397;47.506;19.158;2023-02-24T21:08:20;12.25;64.30
67572;SHT31;54397;47.506;19.158;2023-02-24T21:11:41;12.04;65.44
67572;SHT31;54397;47.506;19.158;2023-02-24T21:15:04;11.97;65.91
67572;SHT31;54397;47.506;19.158;2023-02-24T21:18:26;11.86;66.71
67572;SHT31;54397;47.506;19.158;2023-02-24T21:21:51;11.75;67.41
67572;SHT31;54397;47.506;19.158;2023-02-24T21:25:13;11.77;67.50
67572;SHT31;54397;47.506;19.158;2023-02-24T21:28:35;11.80;67.49
67572;SHT31;54397;47.506;19.158;2023-02-24T21:31:57;11.76;67.89
67572;SHT31;54397;47.506;19.158;2023-02-24T21:35:22;11.80;67.99
67572;SHT31;54397;47.506;19.158;2023-02-24T21:38:45;11.72;68.42
67572;SHT31;54397;47.506;19.158;2023-02-24T21:42:06;11.90;68.35
67572;SHT31;54397;47.506;19.158;2023-02-24T21:45:28;11.79;68.31
67572;SHT31;54397;47.506;19.158;2023-02-24T21:48:54;11.69;68.97
67572;SHT31;54397;47.506;19.158;2023-02-24T21:52:15;11.69;68.97
67572;SHT31;54397;47.506;19.158;2023-02-24T21:55:40;11.73;68.88
67572;SHT31;54397;47.506;19.158;2023-02-24T21:59:04;11.84;74.57
67572;SHT31;54397;47.506;19.158;2023-02-24T22:02:26;12.13;74.90
67572;SHT31;54397;47.506;19.158;2023-02-24T22:05:50;12.31;73.02
67572;SHT31;54397;47.506;19.158;2023-02-24T22:09:14;12.21;67.39
67572;SHT31;54397;47.506;19.158;2023-02-24T22:12:42;11.97;67.48
67572;SHT31;54397;47.506;19.158;2023-02-24T22:16:09;11.66;69.05
67572;SHT31;54397;47.506;19.158;2023-02-24T22:19:31;11.55;69.29
67572;SHT31;54397;47.506;19.158;2023-02-24T22:22:53;11.43;69.38
67572;SHT31;54397;47.506;19.158;2023-02-24T22:26:15;11.35;69.92
67572;SHT31;54397;47.506;19.158;2023-02-24T22:29:38;11.17;70.16
67572;SHT31;54397;47.506;19.158;2023-02-24T22:33:02;11.01;70.97
67572;SHT31;54397;47.506;19.158;2023-02-24T22:36:27;10.90;71.65
67572;SHT31;54397;47.506;19.158;2023-02-24T22:39:49;10.94;71.25
67572;SHT31;54397;47.506;19.158;2023-02-24T22:43:10;10.94;71.29
67572;SHT31;54397;47.506;19.158;2023-02-24T22:46:34;10.84;72.01
67572;SHT31;54397;47.506;19.158;2023-02-24T22:49:56;10.79;72.25
67572;SHT31;54397;47.506;19.158;2023-02-24T22:53:18;10.79;72.16
67572;SHT31;54397;47.506;19.158;2023-02-24T22:56:39;10.74;72.73
67572;SHT31;54397;47.506;19.158;2023-02-24T23:00:04;10.76;72.67
67572;SHT31;54397;47.506;19.158;2023-02-24T23:03:30;10.83;72.73
67572;SHT31;54397;47.506;19.158;2023-02-24T23:06:52;10.67;72.66
67572;SHT31;54397;47.506;19.158;2023-02-24T23:10:20;10.63;72.77
67572;SHT31;54397;47.506;19.158;2023-02-24T23:13:43;10.52;73.43
67572;SHT31;54397;47.506;19.158;2023-02-24T23:17:07;10.60;73.49
67572;SHT31;54397;47.506;19.158;2023-02-24T23:20:32;10.45;73.37
67572;SHT31;54397;47.506;19.158;2023-02-24T23:23:54;10.35;74.20
67572;SHT31;54397;47.506;19.158;2023-02-24T23:27:20;10.36;74.11